createdAt,value
2023-04-20T00:01:34.297Z,1.60
2023-04-20T00:04:02.601Z,1.10
2023-04-20T00:06:32.915Z,1.13
2023-04-20T00:09:01.311Z,0.90
2023-04-20T00:11:29.614Z,1.00
2023-04-20T00:13:57.874Z,1.00
2023-04-20T00:16:26.196Z,1.30
2023-04-20T00:18:54.886Z,0.80
2023-04-20T00:21:24.229Z,1.13
2023-04-20T00:23:53.892Z,1.10
2023-04-20T00:26:22.220Z,1.13
2023-04-20T00:28:51.676Z,1.20
2023-04-20T00:31:20.028Z,1.20
2023-04-20T00:33:48.953Z,0.80
2023-04-20T00:36:17.229Z,0.93
2023-04-20T00:38:45.478Z,0.90
2023-04-20T00:41:15.077Z,1.10
2023-04-20T00:43:51.203Z,1.47
2023-04-20T00:46:19.473Z,1.20
2023-04-20T00:48:47.781Z,0.80
2023-04-20T00:51:16.172Z,0.87
2023-04-20T00:53:44.423Z,0.87
2023-04-20T00:56:15.074Z,0.47
2023-04-20T00:58:43.777Z,0.80
2023-04-20T01:01:12.151Z,0.80
2023-04-20T01:03:40.728Z,1.20
2023-04-20T01:06:09.161Z,0.80
2023-04-20T01:08:37.404Z,1.03
2023-04-20T01:11:05.638Z,0.93
2023-04-20T01:13:35.241Z,0.53
2023-04-20T01:16:03.774Z,0.70
2023-04-20T01:18:38.957Z,0.80
2023-04-20T01:21:07.262Z,1.03
2023-04-20T01:23:37.731Z,0.50
2023-04-20T01:26:07.617Z,0.37
2023-04-20T01:28:35.995Z,0.47
2023-04-20T01:31:04.567Z,1.00
2023-04-20T01:33:32.837Z,0.80
2023-04-20T01:36:01.134Z,0.90
2023-04-20T01:38:30.818Z,0.80
2023-04-20T01:41:00.551Z,1.17
2023-04-20T01:43:28.786Z,0.90
2023-04-20T01:45:56.995Z,0.70
2023-04-20T01:48:25.265Z,0.47
2023-04-20T01:50:53.485Z,0.70
2023-04-20T01:53:21.752Z,0.73
2023-04-20T01:55:50.050Z,0.57
2023-04-20T01:58:19.631Z,1.13
2023-04-20T02:00:47.926Z,0.87
2023-04-20T02:03:16.560Z,0.83
2023-04-20T02:05:44.896Z,0.73
2023-04-20T02:08:13.178Z,1.03
2023-04-20T02:10:41.418Z,0.70
2023-04-20T02:13:09.683Z,0.57
2023-04-20T02:15:39.471Z,0.90
2023-04-20T02:18:07.736Z,0.83
2023-04-20T02:20:36.862Z,0.70
2023-04-20T02:23:05.136Z,0.70
2023-04-20T02:25:33.369Z,0.83
2023-04-20T02:28:01.735Z,0.70
2023-04-20T02:30:30.068Z,0.43
2023-04-20T02:32:59.692Z,0.57
2023-04-20T02:35:27.974Z,0.70
2023-04-20T02:37:56.215Z,0.60
2023-04-20T02:40:25.665Z,0.87
2023-04-20T02:42:53.910Z,0.40
2023-04-20T02:45:22.153Z,0.57
2023-04-20T02:47:50.495Z,0.90
2023-04-20T02:50:20.526Z,0.63
2023-04-20T02:52:48.758Z,0.67
2023-04-20T02:55:17.197Z,0.43
2023-04-20T02:57:45.937Z,0.60
2023-04-20T03:00:14.661Z,0.53
2023-04-20T03:02:43.024Z,0.40
2023-04-20T03:05:12.266Z,0.60
2023-04-20T03:07:41.843Z,0.50
2023-04-20T03:10:10.775Z,0.50
2023-04-20T03:12:39.064Z,0.73
2023-04-20T03:15:07.920Z,0.63
2023-04-20T03:17:36.202Z,0.40
2023-04-20T03:20:05.858Z,0.90
2023-04-20T03:22:34.118Z,0.83
2023-04-20T03:25:03.883Z,0.50
2023-04-20T03:27:32.176Z,0.50
2023-04-20T03:30:00.996Z,0.53
2023-04-20T03:32:32.102Z,0.47
2023-04-20T03:35:00.990Z,0.73
2023-04-20T03:37:29.230Z,0.43
2023-04-20T03:39:57.469Z,0.60
2023-04-20T03:42:27.088Z,0.70
2023-04-20T03:44:55.341Z,0.83
2023-04-20T03:47:23.595Z,0.40
2023-04-20T03:49:52.017Z,0.50
2023-04-20T03:52:20.325Z,0.50
2023-04-20T03:54:48.557Z,0.67
2023-04-20T03:57:16.853Z,0.93
2023-04-20T03:59:46.489Z,0.77
2023-04-20T04:02:14.848Z,0.50
2023-04-20T04:04:43.526Z,0.60
2023-04-20T04:07:12.001Z,0.60
2023-04-20T04:09:40.251Z,0.90
2023-04-20T04:12:08.931Z,0.43
2023-04-20T04:14:37.142Z,0.73
2023-04-20T04:17:07.929Z,0.30
2023-04-20T04:19:36.413Z,0.60
2023-04-20T04:22:04.623Z,0.50
2023-04-20T04:24:33.366Z,0.30
2023-04-20T04:27:05.297Z,0.53
2023-04-20T04:29:35.809Z,0.83
2023-04-20T04:32:05.254Z,0.50
2023-04-20T04:34:35.472Z,0.37
2023-04-20T04:37:03.891Z,0.70
2023-04-20T04:39:32.159Z,0.50
2023-04-20T04:42:00.791Z,0.50
2023-04-20T04:44:31.409Z,0.40
2023-04-20T04:46:59.832Z,0.30
2023-04-20T04:49:29.263Z,0.40
2023-04-20T04:51:58.830Z,0.33
2023-04-20T04:54:27.046Z,0.40
2023-04-20T04:56:55.267Z,0.40
2023-04-20T04:59:23.575Z,0.60
2023-04-20T05:01:51.865Z,0.60
2023-04-20T05:04:20.399Z,0.67
2023-04-20T05:06:48.708Z,0.60
2023-04-20T05:09:18.521Z,0.40
2023-04-20T05:11:47.022Z,0.43
2023-04-20T05:14:15.484Z,0.50
2023-04-20T05:16:43.851Z,0.50
2023-04-20T05:19:12.164Z,0.33
2023-04-20T05:21:40.518Z,0.60
2023-04-20T05:24:08.876Z,0.60
2023-04-20T05:26:38.557Z,0.47
2023-04-20T05:29:06.844Z,0.40
2023-04-20T05:31:35.179Z,0.50
2023-04-20T05:34:03.441Z,0.40
2023-04-20T05:36:33.544Z,0.80
2023-04-20T05:39:01.851Z,0.47
2023-04-20T05:41:30.129Z,0.20
2023-04-20T05:43:59.748Z,0.40
2023-04-20T05:46:29.309Z,0.90
2023-04-20T05:48:57.657Z,0.50
2023-04-20T05:51:29.088Z,0.50
2023-04-20T05:53:57.330Z,0.53
2023-04-20T05:56:25.788Z,0.80
2023-04-20T05:58:54.071Z,0.60
2023-04-20T06:01:23.704Z,0.50
2023-04-20T06:03:52.548Z,0.30
2023-04-20T06:06:21.052Z,0.30
2023-04-20T06:08:50.856Z,1.10
2023-04-20T06:11:19.132Z,0.50
2023-04-20T06:13:47.430Z,0.40
2023-04-20T06:16:15.779Z,0.60
2023-04-20T06:18:45.382Z,0.50
2023-04-20T06:21:13.636Z,0.60
2023-04-20T06:23:42.448Z,0.30
2023-04-20T06:26:10.730Z,0.43
2023-04-20T06:28:39.169Z,0.60
2023-04-20T06:31:07.553Z,0.60
2023-04-20T06:33:35.836Z,0.43
2023-04-20T06:36:07.975Z,0.70
2023-04-20T06:38:36.289Z,0.50
2023-04-20T06:41:04.607Z,0.60
2023-04-20T06:43:32.849Z,0.40
2023-04-20T06:46:01.118Z,0.33
2023-04-20T06:48:32.778Z,0.77
2023-04-20T06:51:01.643Z,0.90
2023-04-20T06:53:31.329Z,0.47
2023-04-20T06:56:00.079Z,0.33
2023-04-20T06:58:28.438Z,0.43
2023-04-20T07:00:56.653Z,0.53
2023-04-20T07:03:25.419Z,1.00
2023-04-20T07:05:53.886Z,1.03
2023-04-20T07:08:22.589Z,0.63
2023-04-20T07:10:52.223Z,0.60
2023-04-20T07:13:20.603Z,0.40
2023-04-20T07:15:48.865Z,0.50
2023-04-20T07:18:17.096Z,0.97
2023-04-20T07:20:45.396Z,0.80
2023-04-20T07:23:13.668Z,0.50
2023-04-20T07:25:42.109Z,0.67
2023-04-20T07:28:11.784Z,0.57
2023-04-20T07:30:40.019Z,0.67
2023-04-20T07:33:08.493Z,0.60
2023-04-20T07:35:36.893Z,0.90
2023-04-20T07:38:05.166Z,0.60
2023-04-20T07:40:33.477Z,0.50
2023-04-20T07:43:01.842Z,0.73
2023-04-20T07:45:31.824Z,0.43
2023-04-20T07:48:01.560Z,0.67
2023-04-20T07:50:29.984Z,1.00
2023-04-20T07:52:58.240Z,0.60
2023-04-20T07:55:26.492Z,0.50
2023-04-20T07:57:54.784Z,0.80
2023-04-20T08:00:23.077Z,0.70
2023-04-20T08:02:52.906Z,0.60
2023-04-20T08:05:21.558Z,0.60
2023-04-20T08:07:49.936Z,0.63
2023-04-20T08:10:18.252Z,0.70
2023-04-20T08:12:47.115Z,0.80
2023-04-20T08:15:15.562Z,0.87
2023-04-20T08:17:43.922Z,0.60
2023-04-20T08:20:13.723Z,0.93
2023-04-20T08:22:42.015Z,0.60
2023-04-20T08:25:10.506Z,0.77
2023-04-20T08:27:38.764Z,0.53
2023-04-20T08:30:07.851Z,0.50
2023-04-20T08:32:36.334Z,0.50
2023-04-20T08:35:06.011Z,0.83
2023-04-20T08:37:35.742Z,0.80
2023-04-20T08:40:04.577Z,0.73
2023-04-20T08:42:32.876Z,0.40
2023-04-20T08:45:01.340Z,0.50
2023-04-20T08:47:29.964Z,0.67
2023-04-20T08:49:58.450Z,0.40
2023-04-20T08:52:26.654Z,0.67
2023-04-20T08:54:57.875Z,0.50
2023-04-20T08:57:27.133Z,0.50
2023-04-20T08:59:55.476Z,0.40
2023-04-20T09:02:23.982Z,0.70
2023-04-20T09:05:02.147Z,0.30
2023-04-20T09:07:30.623Z,0.60
2023-04-20T09:10:00.466Z,0.60
2023-04-20T09:12:29.144Z,0.63
2023-04-20T09:14:57.440Z,0.33
2023-04-20T09:17:35.141Z,0.50
2023-04-20T09:20:05.117Z,0.67
2023-04-20T09:22:33.529Z,0.70
2023-04-20T09:25:03.190Z,0.60
2023-04-20T09:27:31.815Z,0.60
2023-04-20T09:30:00.999Z,0.60
2023-04-20T09:32:29.619Z,0.40
2023-04-20T09:34:57.983Z,0.50
2023-04-20T09:37:26.675Z,0.70
2023-04-20T09:39:55.042Z,0.40
2023-04-20T09:42:24.637Z,0.50
2023-04-20T09:44:52.895Z,0.67
2023-04-20T09:47:21.262Z,0.37
2023-04-20T09:49:49.594Z,0.50
2023-04-20T09:52:18.949Z,0.53
2023-04-20T09:54:47.309Z,0.50
2023-04-20T09:57:15.736Z,0.70
2023-04-20T09:59:45.864Z,0.53
2023-04-20T10:02:14.249Z,0.70
2023-04-20T10:04:53.116Z,0.47
2023-04-20T10:07:25.373Z,0.57
2023-04-20T10:10:04.752Z,0.63
2023-04-20T10:12:32.975Z,0.50
2023-04-20T10:15:02.574Z,0.63
2023-04-20T10:17:31.560Z,0.50
2023-04-20T10:19:59.912Z,0.60
2023-04-20T10:22:30.734Z,0.77
2023-04-20T10:24:58.998Z,0.70
2023-04-20T10:27:27.273Z,0.67
2023-04-20T10:29:55.531Z,0.70
2023-04-20T10:32:26.042Z,0.50
2023-04-20T10:35:03.855Z,0.47
2023-04-20T10:37:32.559Z,0.70
2023-04-20T10:40:00.836Z,0.90
2023-04-20T10:42:29.731Z,0.70
2023-04-20T10:44:58.163Z,0.60
2023-04-20T10:47:30.922Z,0.40
2023-04-20T10:50:07.865Z,0.47
2023-04-20T10:52:36.703Z,0.33
2023-04-20T10:55:05.080Z,0.60
2023-04-20T10:57:33.834Z,0.53
2023-04-20T11:00:02.118Z,0.60
2023-04-20T11:02:31.847Z,1.10
2023-04-20T11:05:02.098Z,0.63
2023-04-20T11:07:30.393Z,0.40
2023-04-20T11:09:58.710Z,0.80
2023-04-20T11:12:27.009Z,0.70
2023-04-20T11:14:55.593Z,0.53
2023-04-20T11:17:34.032Z,0.50
2023-04-20T11:20:06.595Z,0.50
2023-04-20T11:22:34.884Z,0.43
2023-04-20T11:25:06.841Z,0.93
2023-04-20T11:27:35.207Z,0.60
2023-04-20T11:30:05.727Z,0.50
2023-04-20T11:32:35.826Z,0.40
2023-04-20T11:35:06.836Z,0.60
2023-04-20T11:37:35.640Z,0.50
2023-04-20T11:40:05.768Z,0.60
2023-04-20T11:42:34.101Z,0.47
2023-04-20T11:45:02.362Z,0.50
2023-04-20T11:47:30.702Z,0.90
2023-04-20T11:50:00.640Z,0.63
2023-04-20T11:52:28.973Z,0.50
2023-04-20T11:54:57.288Z,0.40
2023-04-20T11:57:25.749Z,0.40
2023-04-20T11:59:54.002Z,0.47
2023-04-20T12:02:22.885Z,0.50
2023-04-20T12:04:51.387Z,0.73
2023-04-20T12:07:21.046Z,0.60
2023-04-20T12:09:49.455Z,0.50
2023-04-20T12:12:17.713Z,0.70
2023-04-20T12:14:46.024Z,0.40
2023-04-20T12:17:14.287Z,0.50
2023-04-20T12:19:42.538Z,0.77
2023-04-20T12:22:10.782Z,0.50
2023-04-20T12:24:40.401Z,0.60
2023-04-20T12:27:08.656Z,0.40
2023-04-20T12:29:36.935Z,0.80
2023-04-20T12:32:05.288Z,0.50
2023-04-20T12:34:33.757Z,0.60
2023-04-20T12:37:02.190Z,0.70
2023-04-20T12:39:30.474Z,0.47
2023-04-20T12:42:00.191Z,0.60
2023-04-20T12:44:28.480Z,0.60
2023-04-20T12:46:56.859Z,0.70
2023-04-20T12:49:25.280Z,0.40
2023-04-20T12:51:53.552Z,0.70
2023-04-20T12:54:21.787Z,0.83
2023-04-20T12:56:50.095Z,0.87
2023-04-20T12:59:19.749Z,0.93
2023-04-20T13:01:48.019Z,0.60
2023-04-20T13:04:17.086Z,0.70
2023-04-20T13:06:45.687Z,0.50
2023-04-20T13:09:13.980Z,0.87
2023-04-20T13:11:42.293Z,0.80
2023-04-20T13:14:10.598Z,0.57
2023-04-20T13:16:40.314Z,0.70
2023-04-20T13:19:08.618Z,0.70
2023-04-20T13:21:36.929Z,0.50
2023-04-20T13:24:05.860Z,0.60
2023-04-20T13:26:34.118Z,0.47
2023-04-20T13:29:02.502Z,0.50
2023-04-20T13:31:31.150Z,0.43
2023-04-20T13:34:01.005Z,0.70
2023-04-20T13:36:29.550Z,0.80
2023-04-20T13:38:57.922Z,0.63
2023-04-20T13:41:26.436Z,0.60
2023-04-20T13:43:54.722Z,0.70
2023-04-20T13:46:23.115Z,0.50
2023-04-20T13:48:51.631Z,0.40
2023-04-20T13:51:21.259Z,0.50
2023-04-20T13:53:49.549Z,0.60
2023-04-20T13:56:17.807Z,0.63
2023-04-20T13:58:46.346Z,0.60
2023-04-20T14:01:15.394Z,0.60
2023-04-20T14:03:43.775Z,0.70
2023-04-20T14:06:12.124Z,0.60
2023-04-20T14:08:41.736Z,0.63
2023-04-20T14:11:09.953Z,0.40
2023-04-20T14:13:38.707Z,0.60
2023-04-20T14:16:09.677Z,0.40
2023-04-20T14:18:38.090Z,0.33
2023-04-20T14:21:06.382Z,0.53
2023-04-20T14:23:34.600Z,0.40
2023-04-20T14:26:04.288Z,0.57
2023-04-20T14:28:33.477Z,0.40
2023-04-20T14:31:02.626Z,0.50
2023-04-20T14:33:30.914Z,0.70
2023-04-20T14:35:59.208Z,0.70
2023-04-20T14:38:27.461Z,0.50
2023-04-20T14:40:55.711Z,0.90
2023-04-20T14:43:25.346Z,0.60
2023-04-20T14:45:55.196Z,0.60
2023-04-20T14:48:24.123Z,0.60
2023-04-20T14:50:52.419Z,0.53
2023-04-20T14:53:20.729Z,0.50
2023-04-20T14:55:49.065Z,0.60
2023-04-20T14:58:18.479Z,0.40
2023-04-20T15:00:48.906Z,0.50
2023-04-20T15:03:17.996Z,0.50
2023-04-20T15:05:47.022Z,0.60
2023-04-20T15:08:15.557Z,0.63
2023-04-20T15:10:43.804Z,0.70
2023-04-20T15:13:12.601Z,0.60
2023-04-20T15:15:48.214Z,0.47
2023-04-20T15:18:18.812Z,0.63
2023-04-20T15:20:47.253Z,0.63
2023-04-20T15:23:15.513Z,0.73
2023-04-20T15:25:43.810Z,0.77
2023-04-20T15:28:12.186Z,0.53
2023-04-20T15:30:40.431Z,0.80
2023-04-20T15:33:08.819Z,0.63
2023-04-20T15:35:38.501Z,0.50
2023-04-20T15:38:06.763Z,0.80
2023-04-20T15:40:35.027Z,0.80
2023-04-20T15:43:04.226Z,0.90
2023-04-20T15:45:32.686Z,0.73
2023-04-20T15:48:01.761Z,0.73
2023-04-20T15:50:30.362Z,0.80
2023-04-20T15:52:59.966Z,0.47
2023-04-20T15:55:28.983Z,0.73
2023-04-20T15:58:00.336Z,0.53
2023-04-20T16:00:28.641Z,0.50
2023-04-20T16:02:56.983Z,0.60
2023-04-20T16:05:26.818Z,0.80
2023-04-20T16:07:55.097Z,0.90
2023-04-20T16:10:26.859Z,1.00
2023-04-20T16:12:56.071Z,0.53
2023-04-20T16:15:24.642Z,0.90
2023-04-20T16:17:52.986Z,0.77
2023-04-20T16:20:21.354Z,0.67
2023-04-20T16:22:49.623Z,0.63
2023-04-20T16:25:22.710Z,0.80
2023-04-20T16:27:52.829Z,0.60
2023-04-20T16:30:21.136Z,1.53
2023-04-20T16:32:49.670Z,0.80
2023-04-20T16:35:18.010Z,0.93
2023-04-20T16:37:46.644Z,0.70
2023-04-20T16:40:14.945Z,0.50
2023-04-20T16:42:43.373Z,0.73
2023-04-20T16:45:13.283Z,1.00
2023-04-20T16:47:41.603Z,0.77
2023-04-20T16:50:10.160Z,0.83
2023-04-20T16:52:38.439Z,0.70
2023-04-20T16:55:07.176Z,0.90
2023-04-20T16:57:35.949Z,1.03
2023-04-20T17:00:05.925Z,0.97
2023-04-20T17:02:36.273Z,0.70
2023-04-20T17:05:04.821Z,0.70
2023-04-20T17:07:33.066Z,0.93
2023-04-20T17:10:01.583Z,0.70
2023-04-20T17:12:29.879Z,0.67
2023-04-20T17:14:58.141Z,0.60
2023-04-20T17:17:28.238Z,0.80
2023-04-20T17:19:57.970Z,1.00
2023-04-20T17:22:26.809Z,0.80
2023-04-20T17:24:55.201Z,0.83
2023-04-20T17:27:23.525Z,0.80
2023-04-20T17:29:51.919Z,1.03
2023-04-20T17:32:20.256Z,1.00
2023-04-20T17:34:51.331Z,0.80
2023-04-20T17:37:21.269Z,1.20
2023-04-20T17:39:49.524Z,0.77
2023-04-20T17:42:18.277Z,1.13
2023-04-20T17:44:46.562Z,0.93
2023-04-20T17:47:15.741Z,1.00
2023-04-20T17:49:44.030Z,1.23
2023-04-20T17:52:15.367Z,0.73
2023-04-20T17:54:45.012Z,0.63
2023-04-20T17:57:14.096Z,0.90
2023-04-20T17:59:42.984Z,0.90
2023-04-20T18:02:11.811Z,0.93
2023-04-20T18:04:40.515Z,0.90
2023-04-20T18:07:09.241Z,1.33
2023-04-20T18:09:38.843Z,0.70
2023-04-20T18:12:10.671Z,1.00
2023-04-20T18:14:38.949Z,1.00
2023-04-20T18:17:07.177Z,1.50
2023-04-20T18:19:35.556Z,1.13
2023-04-20T18:22:04.030Z,1.10
2023-04-20T18:24:32.279Z,1.27
2023-04-20T18:27:01.386Z,0.90
2023-04-20T18:29:31.467Z,0.80
2023-04-20T18:32:01.309Z,1.10
2023-04-20T18:34:32.365Z,0.73
2023-04-20T18:37:00.593Z,1.00
2023-04-20T18:39:29.816Z,0.80
2023-04-20T18:41:58.207Z,0.83
2023-04-20T18:44:28.241Z,1.47
2023-04-20T18:46:58.092Z,1.07
2023-04-20T18:49:26.502Z,1.40
2023-04-20T18:51:54.848Z,0.80
2023-04-20T18:54:23.146Z,0.93
2023-04-20T18:56:51.460Z,1.00
2023-04-20T18:59:20.546Z,1.07
2023-04-20T19:01:49.652Z,1.03
2023-04-20T19:04:19.639Z,1.10
2023-04-20T19:06:48.251Z,1.10
2023-04-20T19:09:16.493Z,1.20
2023-04-20T19:11:44.824Z,1.10
2023-04-20T19:14:13.131Z,1.40
2023-04-20T19:16:41.499Z,1.53
2023-04-20T19:19:09.822Z,1.57
2023-04-20T19:21:39.452Z,1.00
2023-04-20T19:24:07.953Z,1.20
2023-04-20T19:26:36.784Z,1.77
2023-04-20T19:29:05.110Z,1.20
2023-04-20T19:31:37.510Z,1.40
2023-04-20T19:34:05.934Z,1.20
2023-04-20T19:36:34.173Z,1.50
2023-04-20T19:39:04.186Z,1.43
2023-04-20T19:41:32.754Z,1.20
2023-04-20T19:44:04.418Z,1.37
2023-04-20T19:46:32.865Z,1.80
2023-04-20T19:49:01.375Z,1.70
2023-04-20T19:51:29.632Z,1.43
2023-04-20T19:53:57.932Z,1.47
2023-04-20T19:56:27.530Z,1.10
2023-04-20T19:58:55.793Z,1.50
2023-04-20T20:01:24.130Z,1.80
2023-04-20T20:03:52.523Z,1.23
2023-04-20T20:06:21.650Z,1.60
2023-04-20T20:08:50.231Z,1.13
2023-04-20T20:11:18.482Z,2.00
2023-04-20T20:13:48.294Z,1.63
2023-04-20T20:16:16.986Z,1.47
2023-04-20T20:18:45.590Z,1.40
2023-04-20T20:21:13.853Z,1.90
2023-04-20T20:23:42.099Z,1.30
2023-04-20T20:26:10.382Z,1.37
2023-04-20T20:28:38.674Z,1.37
2023-04-20T20:31:08.309Z,1.40
2023-04-20T20:33:37.561Z,1.47
2023-04-20T20:36:06.900Z,1.20
2023-04-20T20:38:35.197Z,1.43
2023-04-20T20:41:04.035Z,1.60
2023-04-20T20:43:32.761Z,1.77
2023-04-20T20:46:01.140Z,1.33
2023-04-20T20:48:30.793Z,1.10
2023-04-20T20:50:59.094Z,1.37
2023-04-20T20:53:27.355Z,1.07
2023-04-20T20:55:55.782Z,1.70
2023-04-20T20:58:24.095Z,1.93
2023-04-20T21:00:52.404Z,1.23
2023-04-20T21:03:20.903Z,1.17
2023-04-20T21:05:50.754Z,1.70
2023-04-20T21:08:19.020Z,1.40
2023-04-20T21:10:47.276Z,1.10
2023-04-20T21:13:15.754Z,1.60
2023-04-20T21:15:44.019Z,1.40
2023-04-20T21:18:12.279Z,0.90
2023-04-20T21:20:40.551Z,1.00
2023-04-20T21:23:10.752Z,0.97
2023-04-20T21:25:39.017Z,1.00
2023-04-20T21:28:07.326Z,1.80
2023-04-20T21:30:35.635Z,1.20
2023-04-20T21:33:03.924Z,1.33
2023-04-20T21:35:32.260Z,1.23
2023-04-20T21:38:00.522Z,1.20
2023-04-20T21:40:30.136Z,1.17
2023-04-20T21:42:58.412Z,1.23
2023-04-20T21:45:26.671Z,1.00
2023-04-20T21:47:55.374Z,1.47
2023-04-20T21:50:26.994Z,1.20
2023-04-20T21:52:55.400Z,0.87
2023-04-20T21:55:23.664Z,1.00
2023-04-20T21:57:53.297Z,1.10
2023-04-20T22:00:21.754Z,0.90
2023-04-20T22:02:50.598Z,0.70
2023-04-20T22:05:19.003Z,1.30
2023-04-20T22:07:47.285Z,1.03
2023-04-20T22:10:15.595Z,1.10
2023-04-20T22:12:43.872Z,0.80
2023-04-20T22:15:14.005Z,0.83
2023-04-20T22:17:45.362Z,0.90
2023-04-20T22:20:14.064Z,1.03
2023-04-20T22:22:42.291Z,1.00
2023-04-20T22:25:11.060Z,0.90
2023-04-20T22:27:39.429Z,0.90
2023-04-20T22:30:09.776Z,1.47
2023-04-20T22:32:39.475Z,0.90
2023-04-20T22:35:08.030Z,1.20
2023-04-20T22:37:36.336Z,0.93
2023-04-20T22:40:05.871Z,0.77
2023-04-20T22:42:34.737Z,1.00
2023-04-20T22:45:03.254Z,1.07
2023-04-20T22:47:32.386Z,1.30
2023-04-20T22:50:02.000Z,1.40
2023-04-20T22:52:30.763Z,2.10
2023-04-20T22:54:59.038Z,1.10
2023-04-20T22:57:27.285Z,1.80
2023-04-20T22:59:55.511Z,1.40
2023-04-20T23:02:23.899Z,1.43
2023-04-20T23:04:52.575Z,1.87
2023-04-20T23:07:22.214Z,1.10
2023-04-20T23:09:50.988Z,1.07
2023-04-20T23:12:20.634Z,1.00
2023-04-20T23:14:50.635Z,1.77
2023-04-20T23:17:18.981Z,1.40
2023-04-20T23:19:47.338Z,1.17
2023-04-20T23:22:15.641Z,1.60
2023-04-20T23:24:45.418Z,1.70
2023-04-20T23:27:13.636Z,1.50
2023-04-20T23:29:42.177Z,1.33
2023-04-20T23:32:10.520Z,1.97
2023-04-20T23:34:38.765Z,1.10
2023-04-20T23:37:07.065Z,1.30
2023-04-20T23:39:38.064Z,1.17
2023-04-20T23:42:07.787Z,1.20
2023-04-20T23:44:36.720Z,1.23
2023-04-20T23:47:05.024Z,1.03
2023-04-20T23:49:33.275Z,1.57
2023-04-20T23:52:01.513Z,1.03
2023-04-20T23:54:31.785Z,0.87
2023-04-20T23:57:02.704Z,1.20
2023-04-20T23:59:32.337Z,1.33
